Time;durP1;ratioP1;P1;durP2;ratioP2;P2;SDS_P1;SDS_P2;PMS_P1;PMS_P2;Temp;Humidity;BMP_temperature;BMP_pressure;BME280_temperature;BME280_humidity;BME280_pressure;Samples;Min_cycle;Max_cycle;Signal;HPM_P1;HPM_P2
2022/10/11 00:00:30;;;;;;;;;;;;;;;;;;5012497;28;19925;-77
2022/10/11 00:02:57;;;;;;;;;;;;;;;;;;5031505;28;20325;-76
2022/10/11 00:05:24;;;;;;;;;;;;;;;;;;5051845;28;19925;-76
2022/10/11 00:07:50;;;;;;;;;;;;;;;;;;5052061;28;19925;-77
2022/10/11 00:10:17;;;;;;;;;;;;;;;;;;5052111;28;19925;-76
2022/10/11 00:12:43;;;;;;;;;;;;;;;;;;5055296;28;19925;-76
2022/10/11 00:15:12;;;;;;;;;;;;;;;;;;5055387;28;20372;-76
2022/10/11 00:17:40;;;;;;;;;;;;;;;;;;5055641;28;20438;-76
2022/10/11 00:20:06;;;;;;;;;;;;;;;;;;5055605;28;19931;-76
2022/10/11 00:22:34;;;;;;;;;;;;;;;;;;5056012;28;20016;-76
2022/10/11 00:25:00;;;;;;;;;;;;;;;;;;5055525;28;19979;-76
2022/10/11 00:27:27;;;;;;;;;;;;;;;;;;5055783;28;20012;-76
2022/10/11 00:29:54;;;;;;;;;;;;;;;;;;5055760;28;19925;-76
2022/10/11 00:32:20;;;;;;;;;;;;;;;;;;5055719;28;19925;-76
2022/10/11 00:34:48;;;;;;;;;;;;;;;;;;5055403;28;20008;-77
2022/10/11 00:37:14;;;;;;;;;;;;;;;;;;5055554;28;19925;-76
2022/10/11 00:39:40;;;;;;;;;;;;;;;;;;5056271;28;20015;-77
2022/10/11 00:42:11;;;;;;;;;;;;;;;;;;5056465;28;19925;-77
2022/10/11 00:44:37;;;;;;;;;;;;;;;;;;5056369;28;19924;-77
2022/10/11 00:47:06;;;;;;;;;;;;;;;;;;5056383;28;19967;-77
2022/10/11 00:49:33;;;;;;;;;;;;;;;;;;5056580;28;19950;-76
2022/10/11 00:52:03;;;;;;;;;;;;;;;;;;5056054;28;20011;-76
2022/10/11 00:54:32;;;;;;;;;;;;;;;;;;5041704;28;19986;-76
2022/10/11 00:57:01;;;;;;;;;;;;;;;;;;5035739;28;19948;-76
2022/10/11 00:59:29;;;;;;;;;;;;;;;;;;5035475;28;20019;-77
2022/10/11 01:01:56;;;;;;;;;;;;;;;;;;5037275;28;20015;-77
2022/10/11 01:04:22;;;;;;;;;;;;;;;;;;5055454;28;19931;-77
2022/10/11 01:06:50;;;;;;;;;;;;;;;;;;5056025;28;19929;-76
2022/10/11 01:09:18;;;;;;;;;;;;;;;;;;5056381;28;19924;-77
2022/10/11 01:15:05;;;;;;;;;;;;;;;;;;5035987;28;19924;-75
2022/10/11 01:17:35;;;;;;;;;;;;;;;;;;5035434;28;20387;-76
2022/10/11 01:20:15;;;;;;;;;;;;;;;;;;5035699;28;19925;-76
2022/10/11 01:22:53;;;;;;;;;;;;;;;;;;5034600;28;20008;-75
2022/10/11 01:25:25;;;;;;;;;;;;;;;;;;5035177;28;19929;-76
2022/10/11 01:28:00;;;;;;;;;;;;;;;;;;5035428;28;19935;-76
2022/10/11 01:30:28;;;;;;;;;;;;;;;;;;5035242;28;20012;-75
2022/10/11 01:32:59;;;;;;;;;;;;;;;;;;5035425;28;20452;-76
2022/10/11 01:35:28;;;;;;;;;;;;;;;;;;5035674;28;20008;-75
2022/10/11 01:37:56;;;;;;;;;;;;;;;;;;5035354;28;19932;-75
2022/10/11 01:40:24;;;;;;;;;;;;;;;;;;5035605;28;20022;-75
2022/10/11 01:42:50;;;;;;;;;;;;;;;;;;5035077;28;20362;-76
2022/10/11 01:45:18;;;;;;;;;;;;;;;;;;5034831;28;20044;-75
2022/10/11 01:47:46;;;;;;;;;;;;;;;;;;5035331;28;19940;-75
2022/10/11 01:50:33;;;;;;;;;;;;;;;;;;5035296;28;19956;-75
2022/10/11 01:53:04;;;;;;;;;;;;;;;;;;5035378;28;20412;-76
2022/10/11 01:55:33;;;;;;;;;;;;;;;;;;5034706;28;20012;-76
2022/10/11 01:58:05;;;;;;;;;;;;;;;;;;5037225;28;20392;-76
2022/10/11 02:00:39;;;;;;;;;;;;;;;;;;5036408;28;20015;-76
2022/10/11 02:03:13;;;;;;;;;;;;;;;;;;5051570;28;20371;-77
2022/10/11 02:05:43;;;;;;;;;;;;;;;;;;5058596;28;19931;-78
2022/10/11 02:08:15;;;;;;;;;;;;;;;;;;5060381;28;19988;-77
2022/10/11 02:10:44;;;;;;;;;;;;;;;;;;5058919;28;19935;-77
2022/10/11 02:13:13;;;;;;;;;;;;;;;;;;5060451;28;19929;-75
2022/10/11 02:15:41;;;;;;;;;;;;;;;;;;5061141;28;19982;-76
2022/10/11 02:18:11;;;;;;;;;;;;;;;;;;5060429;28;19931;-76
2022/10/11 02:20:39;;;;;;;;;;;;;;;;;;5061032;28;20388;-77
2022/10/11 02:23:08;;;;;;;;;;;;;;;;;;5063944;28;20023;-76
2022/10/11 02:25:34;;;;;;;;;;;;;;;;;;5063147;28;20020;-77
2022/10/11 02:28:02;;;;;;;;;;;;;;;;;;5072960;28;19988;-76
2022/10/11 02:30:29;;;;;;;;;;;;;;;;;;5075379;28;19988;-77
2022/10/11 02:32:57;;;;;;;;;;;;;;;;;;5075816;28;19909;-74
2022/10/11 02:35:27;;;;;;;;;;;;;;;;;;5075358;28;19917;-75
2022/10/11 02:37:58;;;;;;;;;;;;;;;;;;5073239;28;19935;-77
2022/10/11 02:40:27;;;;;;;;;;;;;;;;;;5070660;28;19972;-77
2022/10/11 02:42:57;;;;;;;;;;;;;;;;;;5062548;28;19925;-77
2022/10/11 02:45:25;;;;;;;;;;;;;;;;;;5058063;28;19931;-75
2022/10/11 02:47:52;;;;;;;;;;;;;;;;;;5059618;28;20017;-75
2022/10/11 02:50:18;;;;;;;;;;;;;;;;;;5060461;28;19925;-77
2022/10/11 02:52:46;;;;;;;;;;;;;;;;;;5063596;28;19967;-77
2022/10/11 02:55:12;;;;;;;;;;;;;;;;;;5061944;28;19988;-77
2022/10/11 02:57:39;;;;;;;;;;;;;;;;;;5059718;28;19980;-75
2022/10/11 03:00:06;;;;;;;;;;;;;;;;;;5060426;28;20008;-77
2022/10/11 03:02:33;;;;;;;;;;;;;;;;;;5053504;28;19933;-77
2022/10/11 03:04:59;;;;;;;;;;;;;;;;;;5039569;28;19981;-77
2022/10/11 03:07:25;;;;;;;;;;;;;;;;;;5040291;28;20027;-77
2022/10/11 03:09:53;;;;;;;;;;;;;;;;;;5038665;28;19929;-77
2022/10/11 03:12:20;;;;;;;;;;;;;;;;;;5038521;28;20012;-77
2022/10/11 03:14:46;;;;;;;;;;;;;;;;;;5038455;28;20208;-75
2022/10/11 03:17:12;;;;;;;;;;;;;;;;;;5037709;28;19972;-76
2022/10/11 03:19:39;;;;;;;;;;;;;;;;;;5037750;28;19925;-76
2022/10/11 03:22:05;;;;;;;;;;;;;;;;;;5043388;28;19925;-77
2022/10/11 03:24:32;;;;;;;;;;;;;;;;;;5038605;28;19964;-77
2022/10/11 03:27:00;;;;;;;;;;;;;;;;;;5038449;28;19925;-77
2022/10/11 03:29:26;;;;;;;;;;;;;;;;;;5042427;28;19925;-77
2022/10/11 03:31:52;;;;;;;;;;;;;;;;;;5037244;28;20273;-77
2022/10/11 03:34:19;;;;;;;;;;;;;;;;;;5037158;28;19984;-77
2022/10/11 03:36:46;;;;;;;;;;;;;;;;;;5037641;28;19975;-77
2022/10/11 03:39:12;;;;;;;;;;;;;;;;;;5039957;28;20011;-77
2022/10/11 03:41:39;;;;;;;;;;;;;;;;;;5044302;28;19925;-76
2022/10/11 03:44:06;;;;;;;;;;;;;;;;;;5040699;28;19925;-77
2022/10/11 03:46:33;;;;;;;;;;;;;;;;;;5039792;28;19948;-77
2022/10/11 03:48:59;;;;;;;;;;;;;;;;;;5040283;28;20008;-77
2022/10/11 03:51:26;;;;;;;;;;;;;;;;;;5039363;28;19931;-77
2022/10/11 03:53:52;;;;;;;;;;;;;;;;;;5042026;28;19928;-77
2022/10/11 03:56:19;;;;;;;;;;;;;;;;;;5054098;28;19921;-76
2022/10/11 03:58:45;;;;;;;;;;;;;;;;;;5054540;28;19945;-75
2022/10/11 04:01:13;;;;;;;;;;;;;;;;;;5054605;28;19988;-76
2022/10/11 04:03:39;;;;;;;;;;;;;;;;;;5058790;28;19980;-76
2022/10/11 04:06:06;;;;;;;;;;;;;;;;;;5056703;28;19931;-77
2022/10/11 04:08:33;;;;;;;;;;;;;;;;;;5054689;28;19924;-76
2022/10/11 04:10:59;;;;;;;;;;;;;;;;;;5057034;28;20394;-77
2022/10/11 04:13:25;;;;;;;;;;;;;;;;;;5070073;28;19956;-77
2022/10/11 04:15:52;;;;;;;;;;;;;;;;;;5064919;28;20422;-76
2022/10/11 04:18:20;;;;;;;;;;;;;;;;;;5058424;28;20008;-77
2022/10/11 04:20:46;;;;;;;;;;;;;;;;;;5052366;28;20016;-77
2022/10/11 04:23:12;;;;;;;;;;;;;;;;;;5052050;28;19932;-77
2022/10/11 04:25:39;;;;;;;;;;;;;;;;;;5052574;28;20131;-77
2022/10/11 04:28:08;;;;;;;;;;;;;;;;;;5052674;28;19935;-77
2022/10/11 04:30:34;;;;;;;;;;;;;;;;;;5052508;28;20324;-76
2022/10/11 04:33:01;;;;;;;;;;;;;;;;;;5051763;28;19925;-76
2022/10/11 04:35:29;;;;;;;;;;;;;;;;;;5051818;28;19925;-76
2022/10/11 04:37:55;;;;;;;;;;;;;;;;;;5051690;28;19931;-76
2022/10/11 04:40:21;;;;;;;;;;;;;;;;;;5051710;28;20019;-77
2022/10/11 04:42:49;;;;;;;;;;;;;;;;;;5051493;28;20360;-75
2022/10/11 04:45:16;;;;;;;;;;;;;;;;;;5051680;28;19925;-76
2022/10/11 04:47:42;;;;;;;;;;;;;;;;;;5051916;28;19932;-77
2022/10/11 04:50:09;;;;;;;;;;;;;;;;;;5052738;28;20015;-76
2022/10/11 04:52:36;;;;;;;;;;;;;;;;;;5051760;28;19925;-76
2022/10/11 04:55:03;;;;;;;;;;;;;;;;;;5051689;28;20430;-76
2022/10/11 04:57:30;;;;;;;;;;;;;;;;;;5051386;28;19925;-76
2022/10/11 04:59:56;;;;;;;;;;;;;;;;;;5055150;28;19978;-76
2022/10/11 05:02:22;;;;;;;;;;;;;;;;;;5050421;28;20295;-76
2022/10/11 05:04:49;;;;;;;;;;;;;;;;;;5034791;28;19925;-76
2022/10/11 05:07:16;;;;;;;;;;;;;;;;;;5034996;28;19947;-76
2022/10/11 05:09:44;;;;;;;;;;;;;;;;;;5035108;28;20011;-76
2022/10/11 05:12:10;;;;;;;;;;;;;;;;;;5034959;28;19929;-76
2022/10/11 05:14:37;;;;;;;;;;;;;;;;;;5034979;28;20049;-76
2022/10/11 05:17:03;;;;;;;;;;;;;;;;;;5034693;28;20016;-76
2022/10/11 05:19:30;;;;;;;;;;;;;;;;;;5035610;28;19947;-76
2022/10/11 05:21:56;;;;;;;;;;;;;;;;;;5034441;28;19932;-76
2022/10/11 05:24:42;;;;;;;;;;;;;;;;;;5035773;28;20201;-77
2022/10/11 05:27:10;;;;;;;;;;;;;;;;;;5034177;28;19925;-77
2022/10/11 05:29:36;;;;;;;;;;;;;;;;;;5035087;28;19980;-76
2022/10/11 05:32:03;;;;;;;;;;;;;;;;;;5034367;28;20019;-77
2022/10/11 05:34:29;;;;;;;;;;;;;;;;;;5034435;28;19932;-76
2022/10/11 05:36:56;;;;;;;;;;;;;;;;;;5034028;28;19925;-76
2022/10/11 05:39:22;;;;;;;;;;;;;;;;;;5034827;28;20019;-75
2022/10/11 05:41:50;;;;;;;;;;;;;;;;;;5034806;28;20007;-76
2022/10/11 05:44:18;;;;;;;;;;;;;;;;;;5034688;28;19925;-75
2022/10/11 05:46:44;;;;;;;;;;;;;;;;;;5034170;28;19925;-76
2022/10/11 05:49:11;;;;;;;;;;;;;;;;;;5034056;28;20015;-75
2022/10/11 05:51:37;;;;;;;;;;;;;;;;;;5033672;28;19976;-76
2022/10/11 05:54:03;;;;;;;;;;;;;;;;;;5034103;28;19925;-76
2022/10/11 05:56:30;;;;;;;;;;;;;;;;;;5033956;28;19926;-76
2022/10/11 05:58:56;;;;;;;;;;;;;;;;;;5034205;28;19931;-75
2022/10/11 06:01:25;;;;;;;;;;;;;;;;;;5034429;28;19925;-76
2022/10/11 06:03:52;;;;;;;;;;;;;;;;;;5051109;28;19929;-76
2022/10/11 06:06:19;;;;;;;;;;;;;;;;;;5053854;28;19932;-76
2022/10/11 06:08:46;;;;;;;;;;;;;;;;;;5053563;28;19931;-76
2022/10/11 06:11:13;;;;;;;;;;;;;;;;;;5053731;28;20413;-77
2022/10/11 06:13:41;;;;;;;;;;;;;;;;;;5054083;28;19979;-75
2022/10/11 06:16:07;;;;;;;;;;;;;;;;;;5055629;28;20303;-75
2022/10/11 06:18:35;;;;;;;;;;;;;;;;;;5057179;28;19931;-77
2022/10/11 06:21:02;;;;;;;;;;;;;;;;;;5055821;28;20447;-78
2022/10/11 06:23:28;;;;;;;;;;;;;;;;;;5053322;28;20016;-76
2022/10/11 06:25:58;;;;;;;;;;;;;;;;;;5053297;28;20023;-76
2022/10/11 06:28:25;;;;;;;;;;;;;;;;;;5053757;28;19931;-75
2022/10/11 06:30:52;;;;;;;;;;;;;;;;;;5053462;28;19929;-76
2022/10/11 06:33:18;;;;;;;;;;;;;;;;;;5053953;28;19924;-75
2022/10/11 06:35:46;;;;;;;;;;;;;;;;;;5053178;28;19925;-75
2022/10/11 06:38:12;;;;;;;;;;;;;;;;;;5053616;28;20442;-77
2022/10/11 06:40:39;;;;;;;;;;;;;;;;;;5053381;28;19932;-76
2022/10/11 06:43:05;;;;;;;;;;;;;;;;;;5053478;28;19947;-76
2022/10/11 06:45:32;;;;;;;;;;;;;;;;;;5051656;28;19972;-76
2022/10/11 06:48:00;;;;;;;;;;;;;;;;;;5041903;28;19925;-76
2022/10/11 06:50:27;;;;;;;;;;;;;;;;;;5042686;28;19924;-76
2022/10/11 06:52:54;;;;;;;;;;;;;;;;;;5043742;28;19999;-75
2022/10/11 06:55:21;;;;;;;;;;;;;;;;;;5035488;28;19953;-76
2022/10/11 06:57:47;;;;;;;;;;;;;;;;;;5034109;28;19925;-77
2022/10/11 07:00:14;;;;;;;;;;;;;;;;;;5040584;28;19932;-76
2022/10/11 07:02:44;;;;;;;;;;;;;;;;;;5040973;28;20312;-77
2022/10/11 07:05:10;;;;;;;;;;;;;;;;;;5040483;28;20352;-77
2022/10/11 07:07:37;;;;;;;;;;;;;;;;;;5051630;28;20010;-76
2022/10/11 07:10:08;;;;;;;;;;;;;;;;;;5051615;28;19935;-77
2022/10/11 07:12:34;;;;;;;;;;;;;;;;;;5039130;28;19957;-77
2022/10/11 07:15:01;;;;;;;;;;;;;;;;;;5031270;28;20295;-77
2022/10/11 07:17:27;;;;;;;;;;;;;;;;;;5031795;28;20581;-75
2022/10/11 07:20:01;;;;;;;;;;;;;;;;;;5031895;28;20016;-77
2022/10/11 07:22:30;;;;;;;;;;;;;;;;;;5031866;28;19931;-77
2022/10/11 07:24:56;;;;;;;;;;;;;;;;;;5031545;28;19925;-76
2022/10/11 07:27:24;;;;;;;;;;;;;;;;;;5037459;28;20032;-76
2022/10/11 07:29:50;;;;;;;;;;;;;;;;;;5052479;28;20307;-77
2022/10/11 07:32:17;;;;;;;;;;;;;;;;;;5054673;28;19936;-77
2022/10/11 07:34:44;;;;;;;;;;;;;;;;;;5050832;28;19964;-76
2022/10/11 07:37:11;;;;;;;;;;;;;;;;;;5053199;28;19932;-74
2022/10/11 07:39:37;;;;;;;;;;;;;;;;;;5053877;28;19992;-76
2022/10/11 07:42:04;;;;;;;;;;;;;;;;;;5052987;28;19920;-75
2022/10/11 07:44:33;;;;;;;;;;;;;;;;;;5053940;28;19984;-76
2022/10/11 07:46:59;;;;;;;;;;;;;;;;;;5048081;28;19961;-76
2022/10/11 07:49:25;;;;;;;;;;;;;;;;;;5034663;28;19973;-76
2022/10/11 07:51:52;;;;;;;;;;;;;;;;;;5034848;28;20016;-76
2022/10/11 07:54:18;;;;;;;;;;;;;;;;;;5032533;28;19965;-75
2022/10/11 07:56:45;;;;;;;;;;;;;;;;;;5032166;28;20315;-76
2022/10/11 07:59:11;;;;;;;;;;;;;;;;;;5030624;28;20415;-76
2022/10/11 08:01:39;;;;;;;;;;;;;;;;;;5031632;28;19940;-76
2022/10/11 08:04:05;;;;;;;;;;;;;;;;;;5050429;28;19964;-76
2022/10/11 08:06:32;;;;;;;;;;;;;;;;;;5050058;28;19925;-77
2022/10/11 08:08:59;;;;;;;;;;;;;;;;;;5050767;28;19925;-77
2022/10/11 08:11:27;;;;;;;;;;;;;;;;;;5049768;28;20367;-76
2022/10/11 08:13:53;;;;;;;;;;;;;;;;;;5049524;28;19928;-77
2022/10/11 08:16:20;;;;;;;;;;;;;;;;;;5050210;28;19925;-77
2022/10/11 08:18:47;;;;;;;;;;;;;;;;;;5049663;28;20276;-76
2022/10/11 08:21:15;;;;;;;;;;;;;;;;;;5049901;28;20430;-77
2022/10/11 08:23:41;;;;;;;;;;;;;;;;;;5050260;28;20011;-77
2022/10/11 08:26:08;;;;;;;;;;;;;;;;;;5049825;28;19925;-77
2022/10/11 08:28:34;;;;;;;;;;;;;;;;;;5049794;28;19937;-77
2022/10/11 08:31:01;;;;;;;;;;;;;;;;;;5050478;28;20556;-79
2022/10/11 08:33:28;;;;;;;;;;;;;;;;;;5052811;28;19931;-77
2022/10/11 08:35:56;;;;;;;;;;;;;;;;;;5053520;28;19925;-77
2022/10/11 08:38:22;;;;;;;;;;;;;;;;;;5038329;28;19937;-76
2022/10/11 08:40:50;;;;;;;;;;;;;;;;;;5013496;28;20020;-77
2022/10/11 08:43:26;;;;;;;;;;;;;;;;;;5013625;28;19926;-76
2022/10/11 08:45:54;;;;;;;;;;;;;;;;;;5013858;28;19925;-76
2022/10/11 08:48:24;;;;;;;;;;;;;;;;;;5014266;28;19925;-76
2022/10/11 08:50:52;;;;;;;;;;;;;;;;;;5013626;28;19948;-77
2022/10/11 08:53:23;;;;;;;;;;;;;;;;;;5013277;28;20333;-77
2022/10/11 08:55:51;;;;;;;;;;;;;;;;;;5013316;28;20012;-77
2022/10/11 08:58:20;;;;;;;;;;;;;;;;;;5013664;28;19925;-77
2022/10/11 09:00:48;;;;;;;;;;;;;;;;;;5013328;28;19925;-77
2022/10/11 09:03:21;;;;;;;;;;;;;;;;;;5036977;28;20272;-77
2022/10/11 09:05:51;;;;;;;;;;;;;;;;;;5052568;28;20516;-76
2022/10/11 09:08:23;;;;;;;;;;;;;;;;;;5053182;28;19925;-77
2022/10/11 09:10:58;;;;;;;;;;;;;;;;;;5053101;28;20012;-77
2022/10/11 09:13:33;;;;;;;;;;;;;;;;;;5052927;28;19929;-77
2022/10/11 09:16:04;;;;;;;;;;;;;;;;;;5053081;28;20019;-77
2022/10/11 09:18:39;;;;;;;;;;;;;;;;;;5053616;28;19924;-77
2022/10/11 09:21:11;;;;;;;;;;;;;;;;;;5054127;28;19928;-77
2022/10/11 09:23:48;;;;;;;;;;;;;;;;;;5053126;28;20015;-77
2022/10/11 09:26:17;;;;;;;;;;;;;;;;;;5052819;28;19935;-77
2022/10/11 09:28:49;;;;;;;;;;;;;;;;;;5052393;28;20433;-77
2022/10/11 09:31:16;;;;;;;;;;;;;;;;;;5052376;28;20514;-77
2022/10/11 09:33:45;;;;;;;;;;;;;;;;;;5052742;28;19986;-77
2022/10/11 09:36:16;;;;;;;;;;;;;;;;;;5052569;28;19925;-76
2022/10/11 09:38:45;;;;;;;;;;;;;;;;;;5052241;28;19924;-76
2022/10/11 09:41:16;;;;;;;;;;;;;;;;;;5051901;28;19968;-76
2022/10/11 09:43:45;;;;;;;;;;;;;;;;;;5051533;28;19931;-77
2022/10/11 09:46:17;;;;;;;;;;;;;;;;;;5051143;28;20364;-76
2022/10/11 09:48:44;;;;;;;;;;;;;;;;;;5051970;28;19925;-76
2022/10/11 09:51:13;;;;;;;;;;;;;;;;;;5052189;28;20003;-75
2022/10/11 09:53:49;;;;;;;;;;;;;;;;;;5041422;28;20489;-76
2022/10/11 09:56:17;;;;;;;;;;;;;;;;;;5031334;28;19999;-74
2022/10/11 09:58:44;;;;;;;;;;;;;;;;;;5032097;28;19964;-76
2022/10/11 10:01:12;;;;;;;;;;;;;;;;;;5031162;28;19935;-76
2022/10/11 10:03:40;;;;;;;;;;;;;;;;;;5043386;28;19925;-76
2022/10/11 10:06:08;;;;;;;;;;;;;;;;;;5045341;28;19924;-76
2022/10/11 10:08:34;;;;;;;;;;;;;;;;;;5011469;28;19936;-76
2022/10/11 10:11:02;;;;;;;;;;;;;;;;;;5012303;28;19931;-77
2022/10/11 10:13:34;;;;;;;;;;;;;;;;;;5012144;28;19964;-77
2022/10/11 10:16:02;;;;;;;;;;;;;;;;;;5012177;28;19930;-76
2022/10/11 10:18:31;;;;;;;;;;;;;;;;;;5011923;28;19976;-76
2022/10/11 10:20:58;;;;;;;;;;;;;;;;;;5011986;28;19972;-76
2022/10/11 10:23:26;;;;;;;;;;;;;;;;;;5011736;28;20388;-76
2022/10/11 10:26:08;;;;;;;;;;;;;;;;;;5011465;28;19977;-76
2022/10/11 10:28:36;;;;;;;;;;;;;;;;;;5011973;28;20577;-76
2022/10/11 10:31:03;;;;;;;;;;;;;;;;;;5011703;28;19931;-77
2022/10/11 10:33:30;;;;;;;;;;;;;;;;;;5011962;28;19926;-76
2022/10/11 10:35:58;;;;;;;;;;;;;;;;;;5012135;28;19948;-76
2022/10/11 10:38:26;;;;;;;;;;;;;;;;;;5011795;28;20482;-76
2022/10/11 10:40:55;;;;;;;;;;;;;;;;;;5011677;28;20411;-76
2022/10/11 10:43:22;;;;;;;;;;;;;;;;;;5011703;28;19925;-77
2022/10/11 10:46:06;;;;;;;;;;;;;;;;;;5011089;28;20356;-77
2022/10/11 10:48:37;;;;;;;;;;;;;;;;;;5011397;28;20286;-76
2022/10/11 10:51:06;;;;;;;;;;;;;;;;;;5011439;28;19929;-76
2022/10/11 10:53:37;;;;;;;;;;;;;;;;;;5011452;28;19926;-77
2022/10/11 10:56:06;;;;;;;;;;;;;;;;;;5011612;28;19929;-76
2022/10/11 10:58:44;;;;;;;;;;;;;;;;;;5011315;28;20331;-77
2022/10/11 11:01:14;;;;;;;;;;;;;;;;;;5012792;28;20020;-79
2022/10/11 11:03:44;;;;;;;;;;;;;;;;;;5044427;28;19931;-82
2022/10/11 11:06:17;;;;;;;;;;;;;;;;;;5052585;28;19955;-80
2022/10/11 11:09:05;;;;;;;;;;;;;;;;;;5053712;28;20015;-79
2022/10/11 11:11:39;;;;;;;;;;;;;;;;;;5050883;28;19940;-77
2022/10/11 11:14:11;;;;;;;;;;;;;;;;;;5050668;28;19935;-77
2022/10/11 11:16:44;;;;;;;;;;;;;;;;;;5050512;28;20011;-77
2022/10/11 11:19:20;;;;;;;;;;;;;;;;;;5050929;28;20009;-77
2022/10/11 11:21:49;;;;;;;;;;;;;;;;;;5051894;28;19967;-76
2022/10/11 11:24:20;;;;;;;;;;;;;;;;;;5050806;28;20300;-77
2022/10/11 11:26:49;;;;;;;;;;;;;;;;;;5050671;28;20391;-77
2022/10/11 11:29:21;;;;;;;;;;;;;;;;;;5051000;28;19928;-77
2022/10/11 11:31:56;;;;;;;;;;;;;;;;;;5050838;28;19925;-77
2022/10/11 11:34:23;;;;;;;;;;;;;;;;;;5051144;28;20392;-77
2022/10/11 11:36:52;;;;;;;;;;;;;;;;;;5050741;28;20387;-76
2022/10/11 11:39:21;;;;;;;;;;;;;;;;;;5051710;28;19932;-78
2022/10/11 11:41:50;;;;;;;;;;;;;;;;;;5050876;28;19932;-77
2022/10/11 11:44:19;;;;;;;;;;;;;;;;;;5050315;28;20289;-77
2022/10/11 11:46:47;;;;;;;;;;;;;;;;;;5050302;28;19964;-77
2022/10/11 11:49:17;;;;;;;;;;;;;;;;;;5050219;28;20499;-77
2022/10/11 11:51:45;;;;;;;;;;;;;;;;;;5050697;28;19931;-77
2022/10/11 11:54:17;;;;;;;;;;;;;;;;;;5050502;28;19931;-77
2022/10/11 11:56:56;;;;;;;;;;;;;;;;;;5050478;28;20008;-77
2022/10/11 11:59:29;;;;;;;;;;;;;;;;;;5050915;28;20645;-77
2022/10/11 12:02:04;;;;;;;;;;;;;;;;;;5050914;28;19935;-78
2022/10/11 12:04:34;;;;;;;;;;;;;;;;;;5031652;28;19925;-77
2022/10/11 12:07:06;;;;;;;;;;;;;;;;;;5031956;28;19925;-77
2022/10/11 12:09:33;;;;;;;;;;;;;;;;;;5034563;28;19979;-77
2022/10/11 12:12:01;;;;;;;;;;;;;;;;;;5034242;28;20012;-76
2022/10/11 12:14:35;;;;;;;;;;;;;;;;;;5034211;28;20016;-77
2022/10/11 12:17:10;;;;;;;;;;;;;;;;;;5036911;28;19929;-78
2022/10/11 12:19:39;;;;;;;;;;;;;;;;;;5036938;28;20486;-78
2022/10/11 12:22:33;;;;;;;;;;;;;;;;;;5035630;28;19931;-77
2022/10/11 12:25:00;;;;;;;;;;;;;;;;;;5033486;28;20020;-77
2022/10/11 12:27:37;;;;;;;;;;;;;;;;;;5033825;28;19929;-77
2022/10/11 12:30:04;;;;;;;;;;;;;;;;;;5033600;28;20399;-77
2022/10/11 12:32:48;;;;;;;;;;;;;;;;;;5033716;28;19925;-76
2022/10/11 12:35:33;;;;;;;;;;;;;;;;;;5033821;28;19932;-76
2022/10/11 12:38:13;;;;;;;;;;;;;;;;;;5033663;28;19925;-76
2022/10/11 12:40:41;;;;;;;;;;;;;;;;;;5032954;28;19929;-76
2022/10/11 12:43:22;;;;;;;;;;;;;;;;;;5035163;28;20021;-77
2022/10/11 12:45:48;;;;;;;;;;;;;;;;;;5058774;28;19913;-78
2022/10/11 12:48:22;;;;;;;;;;;;;;;;;;5059065;28;19956;-79
2022/10/11 12:50:53;;;;;;;;;;;;;;;;;;5058349;28;19913;-78
2022/10/11 12:53:27;;;;;;;;;;;;;;;;;;5043104;28;19925;-76
2022/10/11 12:55:59;;;;;;;;;;;;;;;;;;5034680;28;20435;-76
2022/10/11 12:58:26;;;;;;;;;;;;;;;;;;5033690;28;19925;-77
2022/10/11 13:01:15;;;;;;;;;;;;;;;;;;5033583;28;19931;-77
2022/10/11 13:03:42;;;;;;;;;;;;;;;;;;5033377;28;20364;-77
2022/10/11 13:06:14;;;;;;;;;;;;;;;;;;5032892;28;20380;-76
2022/10/11 13:08:43;;;;;;;;;;;;;;;;;;5033332;28;20032;-76
2022/10/11 13:11:11;;;;;;;;;;;;;;;;;;5032796;28;19925;-79
2022/10/11 13:13:39;;;;;;;;;;;;;;;;;;5032929;28;19925;-76
2022/10/11 13:16:08;;;;;;;;;;;;;;;;;;5032380;28;19971;-77
2022/10/11 13:18:35;;;;;;;;;;;;;;;;;;5032035;28;19931;-76
2022/10/11 13:21:01;;;;;;;;;;;;;;;;;;5032322;28;20011;-76
2022/10/11 13:23:29;;;;;;;;;;;;;;;;;;5032751;28;20576;-76
2022/10/11 13:26:00;;;;;;;;;;;;;;;;;;5032659;28;19976;-77
2022/10/11 13:28:28;;;;;;;;;;;;;;;;;;5032584;28;19925;-78
2022/10/11 13:30:56;;;;;;;;;;;;;;;;;;5032840;28;20463;-77
2022/10/11 13:33:23;;;;;;;;;;;;;;;;;;5032703;28;20019;-77
2022/10/11 13:35:50;;;;;;;;;;;;;;;;;;5032152;28;19925;-77
2022/10/11 13:38:19;;;;;;;;;;;;;;;;;;5049433;22;20363;-78
2022/10/11 13:40:46;;;;;;;;;;;;;;;;;;5053238;28;19925;-77
2022/10/11 13:43:14;;;;;;;;;;;;;;;;;;5052698;28;20557;-77
2022/10/11 13:45:41;;;;;;;;;;;;;;;;;;5052399;28;20341;-76
2022/10/11 13:48:11;;;;;;;;;;;;;;;;;;5059216;28;20371;-76
2022/10/11 13:50:38;;;;;;;;;;;;;;;;;;5072822;28;19924;-77
2022/10/11 13:53:21;;;;;;;;;;;;;;;;;;5073206;28;19935;-76
2022/10/11 13:55:51;;;;;;;;;;;;;;;;;;5072197;28;20375;-76
2022/10/11 13:58:21;;;;;;;;;;;;;;;;;;5073899;28;19925;-76
2022/10/11 14:00:55;;;;;;;;;;;;;;;;;;5072719;28;19931;-76
2022/10/11 14:03:23;;;;;;;;;;;;;;;;;;5072292;28;20402;-76
2022/10/11 14:05:54;;;;;;;;;;;;;;;;;;5059761;28;19929;-77
2022/10/11 14:08:21;;;;;;;;;;;;;;;;;;5051844;28;19924;-76
2022/10/11 14:10:50;;;;;;;;;;;;;;;;;;5053191;28;19932;-76
2022/10/11 14:13:25;;;;;;;;;;;;;;;;;;5052897;28;19987;-76
2022/10/11 14:15:58;;;;;;;;;;;;;;;;;;5052327;28;19932;-76
2022/10/11 14:18:31;;;;;;;;;;;;;;;;;;5051775;28;19932;-79
2022/10/11 14:20:58;;;;;;;;;;;;;;;;;;5052288;28;19934;-77
2022/10/11 14:23:24;;;;;;;;;;;;;;;;;;5051499;28;19931;-77
2022/10/11 14:25:51;;;;;;;;;;;;;;;;;;5051652;28;19967;-75
2022/10/11 14:28:18;;;;;;;;;;;;;;;;;;5052531;28;20388;-78
2022/10/11 14:30:46;;;;;;;;;;;;;;;;;;5054336;28;19940;-78
2022/10/11 14:33:12;;;;;;;;;;;;;;;;;;5052268;28;19925;-77
2022/10/11 14:35:42;;;;;;;;;;;;;;;;;;5052407;28;19925;-77
2022/10/11 14:38:09;;;;;;;;;;;;;;;;;;5052080;28;20290;-74
2022/10/11 14:40:35;;;;;;;;;;;;;;;;;;5051306;28;20007;-75
2022/10/11 14:43:02;;;;;;;;;;;;;;;;;;5051606;28;19947;-74
2022/10/11 14:45:28;;;;;;;;;;;;;;;;;;5051427;28;19925;-77
2022/10/11 14:47:56;;;;;;;;;;;;;;;;;;5051651;28;19924;-76
2022/10/11 14:50:27;;;;;;;;;;;;;;;;;;5051358;28;19983;-78
2022/10/11 14:52:54;;;;;;;;;;;;;;;;;;5051657;28;20023;-75
2022/10/11 14:55:20;;;;;;;;;;;;;;;;;;5051133;28;20016;-75
2022/10/11 14:57:47;;;;;;;;;;;;;;;;;;5050876;28;19925;-75
2022/10/11 15:00:15;;;;;;;;;;;;;;;;;;5050935;28;19929;-75
2022/10/11 15:02:42;;;;;;;;;;;;;;;;;;5058509;28;19924;-76
2022/10/11 15:05:10;;;;;;;;;;;;;;;;;;5070597;28;19951;-76
2022/10/11 15:07:36;;;;;;;;;;;;;;;;;;5070846;28;19951;-76
2022/10/11 15:10:03;;;;;;;;;;;;;;;;;;5070693;28;20407;-75
2022/10/11 15:12:29;;;;;;;;;;;;;;;;;;5070653;28;19970;-76
2022/10/11 15:14:56;;;;;;;;;;;;;;;;;;5070884;28;19924;-75
2022/10/11 15:17:22;;;;;;;;;;;;;;;;;;5071128;28;20015;-75
2022/10/11 15:19:49;;;;;;;;;;;;;;;;;;5071099;28;19979;-79
2022/10/11 15:22:17;;;;;;;;;;;;;;;;;;5071649;28;20015;-76
2022/10/11 15:24:43;;;;;;;;;;;;;;;;;;5070650;28;19990;-76
2022/10/11 15:27:10;;;;;;;;;;;;;;;;;;5070566;28;20027;-77
2022/10/11 15:29:36;;;;;;;;;;;;;;;;;;5070714;28;19925;-75
2022/10/11 15:32:03;;;;;;;;;;;;;;;;;;5070684;28;20403;-76
2022/10/11 15:34:29;;;;;;;;;;;;;;;;;;5070731;28;19947;-77
2022/10/11 15:36:56;;;;;;;;;;;;;;;;;;5070753;28;19924;-76
2022/10/11 15:39:26;;;;;;;;;;;;;;;;;;5071788;28;20007;-77
2022/10/11 15:41:58;;;;;;;;;;;;;;;;;;5070173;28;20963;-80
2022/10/11 15:44:25;;;;;;;;;;;;;;;;;;5071481;28;19935;-77
2022/10/11 15:46:51;;;;;;;;;;;;;;;;;;5071357;28;20445;-77
2022/10/11 15:49:17;;;;;;;;;;;;;;;;;;5071550;28;20534;-77
2022/10/11 15:51:44;;;;;;;;;;;;;;;;;;5071663;28;19924;-73
2022/10/11 15:54:10;;;;;;;;;;;;;;;;;;5070821;28;20019;-78
2022/10/11 15:56:38;;;;;;;;;;;;;;;;;;5070886;28;19928;-76
2022/10/11 15:59:05;;;;;;;;;;;;;;;;;;5069831;28;20299;-76
2022/10/11 16:01:31;;;;;;;;;;;;;;;;;;5070512;28;20478;-77
2022/10/11 16:03:58;;;;;;;;;;;;;;;;;;5053609;28;19925;-76
2022/10/11 16:06:24;;;;;;;;;;;;;;;;;;5050252;28;19924;-76
2022/10/11 16:08:50;;;;;;;;;;;;;;;;;;5049927;28;19925;-76
2022/10/11 16:11:17;;;;;;;;;;;;;;;;;;5050639;28;19925;-75
2022/10/11 16:13:45;;;;;;;;;;;;;;;;;;5051594;28;20007;-77
2022/10/11 16:16:11;;;;;;;;;;;;;;;;;;5050872;28;19935;-75
2022/10/11 16:19:15;;;;;;;;;;;;;;;;;;5048995;28;20319;-76
2022/10/11 16:21:42;;;;;;;;;;;;;;;;;;5067669;28;20306;-76
2022/10/11 16:24:08;;;;;;;;;;;;;;;;;;5070296;28;19931;-75
2022/10/11 16:26:34;;;;;;;;;;;;;;;;;;5069575;28;19924;-76
2022/10/11 16:29:02;;;;;;;;;;;;;;;;;;5070127;28;19971;-78
2022/10/11 16:31:29;;;;;;;;;;;;;;;;;;5070033;28;19939;-77
2022/10/11 16:33:56;;;;;;;;;;;;;;;;;;5070527;28;19928;-79
2022/10/11 16:36:34;;;;;;;;;;;;;;;;;;5070488;28;20353;-76
2022/10/11 16:39:01;;;;;;;;;;;;;;;;;;5070309;28;19924;-77
2022/10/11 16:41:28;;;;;;;;;;;;;;;;;;5070396;28;20019;-75
2022/10/11 16:43:54;;;;;;;;;;;;;;;;;;5071132;28;19964;-76
2022/10/11 16:46:22;;;;;;;;;;;;;;;;;;5073306;28;20382;-76
2022/10/11 16:48:49;;;;;;;;;;;;;;;;;;5070793;28;20008;-78
2022/10/11 16:51:15;;;;;;;;;;;;;;;;;;5071049;28;19928;-76
2022/10/11 16:53:41;;;;;;;;;;;;;;;;;;5072069;28;19931;-76
2022/10/11 16:56:09;;;;;;;;;;;;;;;;;;5074041;28;20459;-76
2022/10/11 16:58:36;;;;;;;;;;;;;;;;;;5074172;28;20014;-76